Latest Weather Observations for Tibooburra Airport

IDN60801

Issued at 10:02 pm EST Saturday 25 April 2015 (issued every 30 minutes, with the page automatically refreshed every 10 minutes)

About weather observations | Map of weather stations | Latest weather observations for NSW | Other Formats
Station Details ID: 046126 Name: TIBOOBURRA AIRPORT Lat: -29.44 Lon: 142.06 Height: 176.4 m
Data from the previous 72 hours. | See also: Recent months for locations in New South Wales
Date/Time
EST
Temp
°C
App
Temp
°C
Dew
Point
Rel
Hum
%
Delta-T
°C
Wind Press
QNH
hPa
Press
MSL
hPa
Rain
since 9 am
mm
Dir
 
Spd
km/h
Gust
km/h
Spd
kts
Gust
kts
25/10:00pm 12.2 - - - - WSW 7 9 4 5 1018.7 1018.1 -
25/09:30pm 13.4 - - - - SW 15 20 8 11 1018.6 1018.0 0.0
25/09:00pm 13.9 - - - - SSW 20 26 11 14 1018.4 1017.8 0.0
25/08:30pm 14.3 - - - - SW 24 32 13 17 1018.2 1017.6 0.0
25/08:00pm 14.7 - - - - SSW 22 28 12 15 1017.8 1017.2 0.0
25/07:00pm 16.1 - - - - SSW 30 43 16 23 1016.5 1015.8 0.0
25/06:00pm 17.9 - - - - SW 39 48 21 26 1014.8 1014.2 0.0
25/05:30pm 18.9 - - - - SW 41 52 22 28 1014.1 1013.5 0.0
25/05:19pm 19.1 - - - - SW 39 57 21 31 1013.8 1013.2 0.0
25/05:00pm 19.6 - - - - WSW 43 56 23 30 1013.6 1013.0 0.0
25/04:46pm 19.6 - - - - WSW 43 61 23 33 1013.5 1012.9 0.0
25/04:30pm 19.9 - - - - WSW 44 59 24 32 1013.4 1012.8 0.0
25/04:00pm 19.9 - - - - WSW 44 57 24 31 1013.1 1012.5 0.0
25/03:36pm 20.3 - - - - WSW 39 57 21 31 1012.9 1012.3 0.0
25/03:30pm 20.4 - - - - WSW 43 57 23 31 1012.9 1012.3 0.0
25/03:00pm 19.7 - - - - WSW 43 57 23 31 1012.7 1012.1 0.0
25/02:30pm 19.6 - - - - WSW 46 61 25 33 1012.7 1012.1 0.0
25/02:00pm 20.0 - - - - WSW 44 57 24 31 1012.6 1012.0 0.0
25/01:42pm 19.4 - - - - WSW 43 61 23 33 1012.7 1012.1 0.0
25/01:30pm 19.2 - - - - WSW 44 57 24 31 1012.8 1012.2 0.0
25/01:00pm 18.8 - - - - WSW 46 65 25 35 1013.0 1012.4 0.0
25/12:51pm 18.6 - - - - WSW 43 61 23 33 1013.1 1012.5 0.0
25/12:30pm 18.4 - - - - W 44 56 24 30 1013.3 1012.7 0.0
25/12:00pm 17.7 - - - - W 44 56 24 30 1013.5 1012.9 0.0
25/11:30am 17.2 - - - - W 46 57 25 31 1013.4 1012.8 0.0
25/11:00am 16.7 - - - - W 43 56 23 30 1013.5 1012.9 0.0
25/10:39am 16.0 - - - - W 37 56 20 30 1013.5 1012.9 0.0
25/10:30am 16.2 - - - - WNW 37 46 20 25 1013.7 1013.1 0.0
25/10:00am 14.9 - - - - W 35 44 19 24 1013.8 1013.2 0.0
25/09:00am 13.3 - - - - W 35 44 19 24 1013.8 1013.2 0.0
25/08:30am 12.7 - - - - WNW 28 39 15 21 1013.5 1012.9 0.0
25/08:00am 11.9 - - - - WNW 24 32 13 17 1013.3 1012.7 0.0
25/07:30am 11.3 - - - - WNW 28 37 15 20 1013.0 1012.4 0.0
25/07:00am 11.1 - - - - W 26 35 14 19 1012.7 1012.1 0.0
25/06:30am 11.5 - - - - W 28 37 15 20 1012.6 1012.0 0.0
25/05:30am 12.2 - - - - W 24 32 13 17 1012.3 1011.7 0.0
25/05:00am 12.6 - - - - WNW 20 28 11 15 1012.2 1011.6 0.0
25/04:30am 13.2 - - - - W 22 28 12 15 1012.3 1011.7 0.0
25/04:00am 13.6 - - - - W 20 24 11 13 1012.1 1011.4 0.0
25/03:30am 14.1 - - - - WSW 22 28 12 15 1012.1 1011.4 0.0
25/03:00am 14.6 - - - - W 24 32 13 17 1012.3 1011.7 0.0
25/02:30am 14.8 - - - - W 20 28 11 15 1012.4 1011.8 0.0
25/02:00am 14.9 - - - - WSW 17 20 9 11 1012.4 1011.8 0.0
25/01:30am 14.9 - - - - WSW 17 20 9 11 1012.4 1011.8 0.0
25/01:00am 15.3 - - - - WSW 19 24 10 13 1012.5 1011.9 0.0
25/12:30am 15.8 - - - - WSW 20 26 11 14 1012.5 1011.9 0.0
25/12:00am 16.4 - - - - SW 24 28 13 15 1012.4 1011.8 0.0
 
Date/Time
EST
Temp
°C
App
Temp
°C
Dew
Point
Rel
Hum
%
Delta-T
°C
Wind Press
QNH
hPa
Press
MSL
hPa
Rain
since 9 am
mm
Dir
 
Spd
km/h
Gust
km/h
Spd
kts
Gust
kts
24/11:30pm 17.1 - - - - WSW 28 35 15 19 1012.3 1011.7 0.0
24/11:06pm 18.0 - - - - W 28 48 15 26 1012.2 1011.6 0.0
24/11:00pm 17.7 - - - - W 24 28 13 15 1012.0 1011.3 0.0
24/10:30pm 18.2 - - - - W 24 28 13 15 1011.9 1011.2 0.0
24/10:00pm 18.9 - - - - W 28 37 15 20 1011.8 1011.1 0.0
24/09:30pm 19.5 - - - - W 32 43 17 23 1011.7 1011.0 0.0
24/09:00pm 19.5 - - - - W 24 30 13 16 1011.6 1010.9 0.0
24/08:30pm 19.9 - - - - W 22 26 12 14 1011.2 1010.5 0.0
24/08:00pm 20.6 - - - - W 22 30 12 16 1011.0 1010.3 0.0
24/07:30pm 20.9 - - - - WNW 20 26 11 14 1010.7 1010.0 0.0
24/07:00pm 21.3 - - - - W 20 22 11 12 1010.4 1009.7 0.0
24/06:30pm 22.0 - - - - W 20 26 11 14 1010.0 1009.4 0.0
24/06:00pm 22.4 - - - - W 22 30 12 16 1009.7 1009.1 0.0
24/05:30pm 23.1 - - - - W 30 39 16 21 1009.5 1008.9 0.0
24/05:00pm 23.9 - - - - W 30 41 16 22 1009.4 1008.8 0.0
24/04:30pm 24.3 - - - - W 30 39 16 21 1009.2 1008.6 0.0
24/04:00pm 24.9 - - - - W 30 39 16 21 1009.2 1008.6 0.0
24/03:30pm 24.9 - - - - W 30 41 16 22 1009.2 1008.6 0.0
24/03:00pm 25.1 - - - - W 30 41 16 22 1009.4 1008.8 0.0
24/02:30pm 24.5 - - - - W 28 43 15 23 1009.4 1008.8 0.0
24/02:00pm 24.7 - - - - WNW 28 39 15 21 1009.5 1008.9 0.0
24/01:30pm 24.4 - - - - WNW 28 41 15 22 1010.0 1009.4 0.0
24/01:00pm 24.8 - - - - WNW 30 43 16 23 1010.5 1009.8 0.0
24/12:30pm 23.6 - - - - WNW 26 35 14 19 1011.1 1010.4 0.0
24/12:00pm 23.3 - - - - WNW 28 37 15 20 1011.6 1010.9 0.0
24/11:30am 22.6 - - - - WNW 24 32 13 17 1012.2 1011.6 0.0
24/11:00am 22.4 - - - - WNW 22 32 12 17 1012.4 1011.8 0.0
24/10:30am 21.6 - - - - WNW 20 28 11 15 1012.5 1011.9 0.0
24/10:00am 20.6 - - - - WNW 20 26 11 14 1012.7 1012.1 0.0
24/09:30am 18.7 - - - - WNW 17 20 9 11 1012.8 1012.2 0.0
24/09:00am 18.2 - - - - WNW 13 17 7 9 1012.8 1012.2 0.0
24/08:30am 17.1 - - - - WNW 13 17 7 9 1012.7 1012.1 0.0
24/08:00am 16.2 - - - - NNE 4 7 2 4 1012.6 1012.0 0.0
24/07:30am 14.5 - - - - N 9 11 5 6 1012.3 1011.7 0.0
24/07:00am 14.4 - - - - NNW 6 7 3 4 1012.0 1011.3 0.0
24/06:30am 14.3 - - - - NNE 6 9 3 5 1011.8 1011.1 0.0
24/06:00am 15.2 - - - - WNW 7 11 4 6 1011.7 1011.0 0.0
24/05:30am 15.6 - - - - WNW 13 15 7 8 1011.7 1011.0 0.0
24/05:00am 15.4 - - - - WNW 15 17 8 9 1011.5 1010.8 0.0
24/04:30am 15.0 - - - - WNW 13 17 7 9 1011.6 1010.9 0.0
24/04:00am 15.6 - - - - W 13 15 7 8 1011.6 1010.9 0.0
24/03:30am 15.6 - - - - W 13 15 7 8 1011.6 1010.9 0.0
24/03:00am 15.6 - - - - W 11 13 6 7 1011.9 1011.2 0.0
24/02:30am 15.4 - - - - WNW 13 15 7 8 1012.2 1011.6 0.0
24/02:00am 14.6 - - - - WNW 11 13 6 7 1012.3 1011.7 0.0
24/01:30am 15.3 - - - - W 11 13 6 7 1012.7 1012.1 0.0
24/01:00am 16.0 - - - - W 13 15 7 8 1012.8 1012.2 0.0
24/12:30am 16.0 - - - - WNW 11 15 6 8 1012.9 1012.3 0.0
24/12:00am 16.2 - - - - WNW 13 15 7 8 1013.3 1012.7 0.0
 
Date/Time
EST
Temp
°C
App
Temp
°C
Dew
Point
Rel
Hum
%
Delta-T
°C
Wind Press
QNH
hPa
Press
MSL
hPa
Rain
since 9 am
mm
Dir
 
Spd
km/h
Gust
km/h
Spd
kts
Gust
kts
23/11:30pm 16.4 - - - - WNW 11 13 6 7 1013.5 1012.9 0.0
23/11:00pm 16.1 - - - - WNW 11 13 6 7 1013.8 1013.2 0.0
23/10:30pm 16.1 - - - - WNW 13 15 7 8 1014.2 1013.6 0.0
23/10:00pm 15.8 - - - - WNW 13 15 7 8 1014.5 1013.9 0.0
23/09:30pm 16.2 - - - - W 11 13 6 7 1014.6 1014.0 0.0
23/09:00pm 16.8 - - - - WNW 15 15 8 8 1014.8 1014.2 0.0
23/08:30pm 16.8 - - - - WNW 11 13 6 7 1014.6 1014.0 0.0
23/08:00pm 17.1 - - - - WNW 7 11 4 6 1014.4 1013.8 0.0
23/07:30pm 17.9 - - - - WSW 4 6 2 3 1014.3 1013.7 0.0
23/07:00pm 18.7 - - - - WSW 7 9 4 5 1014.2 1013.6 0.0
23/06:30pm 19.4 - - - - WSW 7 9 4 5 1014.1 1013.5 0.0
23/06:00pm 19.9 - - - - WSW 13 15 7 8 1014.0 1013.4 0.0
23/05:30pm 20.1 - - - - SW 13 17 7 9 1013.8 1013.2 0.0
23/05:00pm 20.4 - - - - SW 15 19 8 10 1013.7 1013.1 0.0
23/04:30pm 20.6 - - - - WSW 20 24 11 13 1013.9 1013.3 0.0
23/04:00pm 21.5 - - - - SW 17 24 9 13 1013.7 1013.1 0.0
23/03:30pm 22.1 - - - - W 17 22 9 12 1013.9 1013.3 0.0
23/03:00pm 21.3 - - - - WSW 17 24 9 13 1014.2 1013.6 0.0
23/02:30pm 21.7 - - - - WSW 13 17 7 9 1014.5 1013.9 0.0
23/02:00pm 21.3 - - - - W 13 20 7 11 1014.9 1014.3 0.0
23/01:30pm 20.7 - - - - SW 9 15 5 8 1015.2 1014.6 0.0
23/01:00pm 20.6 - - - - WNW 4 9 2 5 1015.7 1015.1 0.0
23/12:30pm 20.6 - - - - SW 6 13 3 7 1016.5 1015.8 0.0
23/12:00pm 19.9 - - - - S 4 7 2 4 1016.7 1016.0 0.0
23/11:30am 19.9 - - - - SSE 6 9 3 5 1017.0 1016.3 0.0
23/11:00am 19.6 - - - - S 6 11 3 6 1017.6 1017.0 0.0
23/10:30am 18.1 - - - - S 6 7 3 4 1017.9 1017.3 0.0
23/10:00am 17.7 - - - - SSE 7 11 4 6 1017.8 1017.2 0.0
23/09:30am 16.6 - - - - S 9 11 5 6 1017.7 1017.1 0.0
23/09:00am 15.6 - - - - S 9 13 5 7 1018.1 1017.5 0.0
23/08:30am 14.6 - - - - SSW 6 7 3 4 1018.2 1017.6 0.0
23/08:00am 12.2 - - - - SW 7 9 4 5 1017.9 1017.3 0.0
23/07:30am 11.1 - - - - SW 7 9 4 5 1018.0 1017.4 0.0
23/07:00am 10.8 - - - - WSW 11 13 6 7 1017.9 1017.3 0.0
23/06:30am 11.0 - - - - WSW 13 13 7 7 1017.8 1017.2 0.0
23/06:00am 10.8 - - - - WSW 11 11 6 6 1017.6 1017.0 0.0
23/05:30am 10.4 - - - - WSW 13 13 7 7 1017.3 1016.7 0.0
23/05:00am 10.4 - - - - W 13 15 7 8 1017.2 1016.6 0.0
23/04:30am 10.3 - - - - W 13 15 7 8 1017.2 1016.6 0.0
23/04:00am 10.7 - - - - WSW 11 13 6 7 1017.3 1016.7 0.0
23/03:30am 10.9 - - - - WSW 11 13 6 7 1017.4 1016.8 0.0
23/03:00am 11.3 - - - - WSW 11 13 6 7 1017.9 1017.3 0.0
23/02:30am 11.8 - - - - SSW 11 13 6 7 1018.1 1017.5 0.0
23/02:00am 12.0 - - - - SSW 11 13 6 7 1018.3 1017.7 0.0
23/01:30am 12.0 - - - - SW 11 13 6 7 1018.6 1018.0 0.0
23/01:00am 12.3 - - - - SW 11 13 6 7 1018.8 1018.2 0.0
23/12:30am 12.6 - - - - SW 9 11 5 6 1018.8 1018.2 0.0
23/12:00am 13.2 - - - - SSW 11 13 6 7 1018.9 1018.3 0.0
 
Date/Time
EST
Temp
°C
App
Temp
°C
Dew
Point
Rel
Hum
%
Delta-T
°C
Wind Press
QNH
hPa
Press
MSL
hPa
Rain
since 9 am
mm
Dir
 
Spd
km/h
Gust
km/h
Spd
kts
Gust
kts
22/11:30pm 13.6 - - - - SSW 11 13 6 7 1019.1 1018.5 0.0
22/11:00pm 13.7 - - - - SSW 11 13 6 7 1019.4 1018.8 0.0
22/10:30pm 14.1 - - - - SSW 11 13 6 7 1019.6 1019.0 0.0

Other Formats:

Comma delimited format used in spreadsheet applications
http://www.bom.gov.au/fwo/IDN60801/IDN60801.95485.axf

JavaScript Object Notation format (JSON) in row-major order
http://www.bom.gov.au/fwo/IDN60801/IDN60801.95485.json